Time;durP1;ratioP1;P1;durP2;ratioP2;P2;SDS_P1;SDS_P2;PMS_P1;PMS_P2;Temp;Humidity;BMP_temperature;BMP_pressure;BME280_temperature;BME280_humidity;BME280_pressure;Samples;Min_cycle;Max_cycle;Signal;HPM_P1;HPM_P2
2022/08/29 00:01:45;;;;;;;11.40;4.63;;;17.20;99.90;;;;;;4982940;28;20030;-48
2022/08/29 00:04:10;;;;;;;10.32;4.32;;;17.20;99.90;;;;;;4982189;28;20029;-45
2022/08/29 00:06:36;;;;;;;13.07;4.85;;;17.20;99.90;;;;;;4984952;28;20034;-47
2022/08/29 00:09:02;;;;;;;14.07;5.32;;;17.20;99.90;;;;;;4981617;28;20066;-49
2022/08/29 00:11:28;;;;;;;8.07;4.10;;;17.20;99.90;;;;;;4983589;28;20026;-45
2022/08/29 00:13:53;;;;;;;8.23;4.50;;;17.20;99.90;;;;;;4981462;28;20479;-45
2022/08/29 00:16:19;;;;;;;13.82;5.03;;;17.20;99.90;;;;;;4983808;28;20449;-48
2022/08/29 00:18:45;;;;;;;11.80;5.72;;;17.30;99.90;;;;;;4983157;28;20022;-45
2022/08/29 00:21:10;;;;;;;14.43;5.93;;;17.30;99.90;;;;;;4983071;28;20129;-47
2022/08/29 00:23:36;;;;;;;13.65;5.75;;;17.30;99.90;;;;;;4984347;28;20031;-49
2022/08/29 00:26:02;;;;;;;11.50;5.25;;;17.20;99.90;;;;;;4981802;28;20027;-47
2022/08/29 00:28:27;;;;;;;12.40;5.93;;;17.30;99.90;;;;;;4983608;28;20072;-48
2022/08/29 00:30:53;;;;;;;14.35;6.07;;;17.30;99.90;;;;;;4981275;28;20054;-45
2022/08/29 00:33:18;;;;;;;9.60;5.25;;;17.30;99.90;;;;;;4983481;28;20084;-45
2022/08/29 00:35:45;;;;;;;9.27;4.78;;;17.30;99.90;;;;;;4983130;28;20034;-46
2022/08/29 00:38:13;;;;;;;11.23;4.78;;;17.30;99.90;;;;;;4982819;28;20027;-48
2022/08/29 00:40:51;;;;;;;15.05;4.97;;;17.30;99.90;;;;;;4983780;28;20061;-45
2022/08/29 00:43:19;;;;;;;8.52;4.80;;;17.30;99.90;;;;;;4970849;28;20030;-46
2022/08/29 00:46:29;;;;;;;12.18;5.10;;;17.20;99.90;;;;;;4976909;28;20023;-46
2022/08/29 00:49:09;;;;;;;10.70;5.15;;;17.30;99.90;;;;;;4960383;28;20050;-45
2022/08/29 00:51:35;;;;;;;14.57;5.50;;;17.20;99.90;;;;;;4978092;28;20081;-45
2022/08/29 00:54:05;;;;;;;13.05;5.85;;;17.20;99.90;;;;;;4967784;28;20036;-47
2022/08/29 00:56:32;;;;;;;9.50;4.47;;;17.30;99.90;;;;;;4982635;28;20023;-47
2022/08/29 00:59:07;;;;;;;15.63;5.30;;;17.30;99.90;;;;;;4979220;28;20074;-48
2022/08/29 01:01:33;;;;;;;13.40;5.97;;;17.30;99.90;;;;;;4981368;28;20027;-46
2022/08/29 01:03:59;;;;;;;11.90;6.05;;;17.30;99.90;;;;;;4979127;28;20566;-48
2022/08/29 01:06:26;;;;;;;15.82;5.57;;;17.30;99.90;;;;;;4985584;28;20043;-48
2022/08/29 01:08:53;;;;;;;14.10;5.22;;;17.30;99.90;;;;;;4979880;28;20077;-44
2022/08/29 01:14:05;;;;;;;11.18;5.47;;;17.30;99.90;;;;;;4980578;28;20455;-47
2022/08/29 01:16:31;;;;;;;11.00;5.18;;;17.30;99.90;;;;;;4982976;28;20034;-44
2022/08/29 01:19:02;;;;;;;11.15;5.25;;;17.30;99.90;;;;;;4981436;28;20543;-45
2022/08/29 01:21:51;;;;;;;12.85;5.70;;;17.30;99.90;;;;;;4982765;28;20257;-45
2022/08/29 01:24:40;;;;;;;8.25;4.80;;;17.30;99.90;;;;;;4982562;28;20022;-47
2022/08/29 01:27:06;;;;;;;14.95;5.82;;;17.30;99.90;;;;;;4980377;28;20427;-48
2022/08/29 01:29:33;;;;;;;10.60;5.50;;;17.20;99.90;;;;;;4983219;28;20046;-51
2022/08/29 01:31:58;;;;;;;8.07;5.03;;;17.20;99.90;;;;;;4981108;28;20029;-50
2022/08/29 01:34:26;;;;;;;10.15;4.43;;;17.20;99.90;;;;;;4983085;28;20026;-48
2022/08/29 01:37:02;;;;;;;12.70;6.38;;;17.20;99.90;;;;;;4982048;28;20029;-45
2022/08/29 01:39:31;;;;;;;10.88;5.47;;;17.20;99.90;;;;;;4982683;28;20018;-46
2022/08/29 01:42:02;;;;;;;8.63;4.72;;;17.20;99.90;;;;;;4980918;28;20027;-45
2022/08/29 01:44:28;;;;;;;16.30;5.75;;;17.20;99.90;;;;;;4979277;28;20026;-46
2022/08/29 01:46:56;;;;;;;11.63;5.38;;;17.20;99.90;;;;;;4984276;28;20026;-45
2022/08/29 01:49:22;;;;;;;9.70;5.43;;;17.20;99.90;;;;;;4978946;28;20089;-44
2022/08/29 01:51:49;;;;;;;12.93;5.22;;;17.20;99.90;;;;;;4985991;28;20081;-49
2022/08/29 01:54:15;;;;;;;14.18;6.47;;;17.20;99.90;;;;;;4971004;28;20018;-50
2022/08/29 01:56:43;;;;;;;10.05;5.22;;;17.20;99.90;;;;;;4965706;28;20599;-46
2022/08/29 01:59:12;;;;;;;11.13;4.70;;;17.20;99.90;;;;;;4977727;28;20084;-48
2022/08/29 02:01:43;;;;;;;19.52;5.63;;;17.20;99.90;;;;;;4982058;28;20028;-49
2022/08/29 02:04:09;;;;;;;10.52;4.68;;;17.20;99.90;;;;;;4978787;28;20018;-45
2022/08/29 02:06:36;;;;;;;13.40;5.35;;;17.20;99.90;;;;;;4978684;28;20062;-48
2022/08/29 02:09:02;;;;;;;9.63;5.50;;;17.20;99.90;;;;;;4989486;28;20018;-47
2022/08/29 02:11:28;;;;;;;16.02;5.70;;;17.20;99.90;;;;;;4978415;28;20736;-47
2022/08/29 02:13:57;;;;;;;11.13;5.00;;;17.20;99.90;;;;;;4983329;28;20038;-45
2022/08/29 02:16:25;;;;;;;10.38;5.85;;;17.20;99.90;;;;;;4986259;28;20536;-47
2022/08/29 02:18:51;;;;;;;13.93;5.93;;;17.20;99.90;;;;;;4970641;28;20039;-44
2022/08/29 02:21:21;;;;;;;9.93;5.78;;;17.20;99.90;;;;;;4987705;28;20487;-47
2022/08/29 02:23:48;;;;;;;11.35;5.47;;;17.20;99.90;;;;;;4982670;28;20718;-48
2022/08/29 02:26:18;;;;;;;12.27;6.28;;;17.20;99.90;;;;;;4983029;28;20022;-45
2022/08/29 02:28:45;;;;;;;9.77;5.13;;;17.20;99.90;;;;;;4979264;28;20034;-44
2022/08/29 02:31:12;;;;;;;8.23;4.70;;;17.20;99.90;;;;;;4990003;28;20038;-45
2022/08/29 02:33:38;;;;;;;10.18;4.97;;;17.20;99.90;;;;;;4982346;28;20109;-48
2022/08/29 02:36:05;;;;;;;8.85;5.20;;;17.20;99.90;;;;;;4984164;28;20118;-45
2022/08/29 02:38:31;;;;;;;11.07;6.20;;;17.20;99.90;;;;;;4984202;28;20022;-44
2022/08/29 02:40:57;;;;;;;7.57;4.68;;;17.10;99.90;;;;;;4981493;28;20406;-45
2022/08/29 02:43:24;;;;;;;7.85;5.30;;;17.10;99.90;;;;;;4988018;28;20019;-46
2022/08/29 02:45:50;;;;;;;7.65;5.15;;;17.20;99.90;;;;;;4978692;28;20572;-48
2022/08/29 02:48:16;;;;;;;12.65;5.78;;;17.20;99.90;;;;;;4984348;28;20027;-47
2022/08/29 02:50:48;;;;;;;14.20;6.72;;;17.20;99.90;;;;;;4983448;28;20113;-49
2022/08/29 02:53:16;;;;;;;13.73;5.55;;;17.20;99.90;;;;;;4970307;28;20041;-46
2022/08/29 02:55:42;;;;;;;8.02;4.65;;;17.10;99.90;;;;;;4985039;28;20073;-46
2022/08/29 02:58:08;;;;;;;11.65;5.45;;;17.10;99.90;;;;;;4984541;28;20062;-46
2022/08/29 03:00:34;;;;;;;8.88;4.88;;;17.10;99.90;;;;;;4986820;28;20399;-44
2022/08/29 03:03:01;;;;;;;8.75;5.05;;;17.10;99.90;;;;;;4982802;28;20606;-45
2022/08/29 03:05:29;;;;;;;9.20;5.45;;;17.10;99.90;;;;;;4985195;28;20037;-45
2022/08/29 03:07:57;;;;;;;14.10;6.30;;;17.10;99.90;;;;;;4983070;28;20039;-46
2022/08/29 03:10:23;;;;;;;10.60;5.57;;;17.10;99.90;;;;;;4985237;28;20054;-44
2022/08/29 03:12:50;;;;;;;10.63;5.78;;;17.00;99.90;;;;;;4982973;28;20030;-47
2022/08/29 03:15:16;;;;;;;7.28;5.03;;;17.00;99.90;;;;;;4985130;28;20050;-46
2022/08/29 03:17:43;;;;;;;8.25;5.53;;;17.00;99.90;;;;;;4984159;28;20030;-45
2022/08/29 03:20:10;;;;;;;8.48;6.03;;;17.00;99.90;;;;;;4982766;28;20035;-46
2022/08/29 03:22:36;;;;;;;10.90;6.47;;;17.00;99.90;;;;;;4984301;28;20030;-45
2022/08/29 03:25:04;;;;;;;9.25;6.72;;;16.90;99.90;;;;;;4983715;28;20033;-45
2022/08/29 03:27:30;;;;;;;18.15;8.57;;;16.90;99.90;;;;;;4985000;28;20030;-45
2022/08/29 03:29:56;;;;;;;8.20;6.35;;;16.90;99.90;;;;;;4984403;28;20499;-45
2022/08/29 03:32:24;;;;;;;9.43;6.10;;;16.80;99.90;;;;;;4983246;28;20117;-45
2022/08/29 03:34:50;;;;;;;10.05;6.18;;;16.80;99.90;;;;;;4982879;28;20150;-45
2022/08/29 03:37:16;;;;;;;10.27;6.80;;;16.90;99.90;;;;;;4984760;28;20097;-48
2022/08/29 03:39:41;;;;;;;14.10;7.38;;;16.80;99.90;;;;;;4984558;28;20030;-51
2022/08/29 03:42:07;;;;;;;10.50;6.43;;;16.80;99.90;;;;;;4983524;28;20037;-44
2022/08/29 03:44:37;;;;;;;9.32;7.07;;;16.80;99.90;;;;;;4983422;28;20026;-44
2022/08/29 03:47:03;;;;;;;14.63;6.82;;;16.80;99.90;;;;;;4982894;28;20015;-44
2022/08/29 03:49:29;;;;;;;10.43;5.95;;;16.80;99.90;;;;;;4984267;28;20030;-44
2022/08/29 03:51:55;;;;;;;10.73;7.15;;;16.80;99.90;;;;;;4982005;28;20447;-47
2022/08/29 03:54:21;;;;;;;15.45;7.90;;;16.80;99.90;;;;;;4983959;28;20109;-47
2022/08/29 03:56:47;;;;;;;11.45;7.47;;;16.80;99.90;;;;;;4983173;28;20573;-46
2022/08/29 03:59:14;;;;;;;13.90;7.88;;;16.70;99.90;;;;;;4983924;28;20022;-45
2022/08/29 04:01:40;;;;;;;12.38;7.97;;;16.70;99.90;;;;;;4983215;28;20102;-45
2022/08/29 04:04:05;;;;;;;13.13;8.57;;;16.70;99.90;;;;;;4983826;28;20522;-45
2022/08/29 04:06:32;;;;;;;12.88;8.15;;;16.70;99.90;;;;;;4983683;28;20022;-46
2022/08/29 04:08:59;;;;;;;14.02;9.43;;;16.70;99.90;;;;;;4981771;28;20011;-44
2022/08/29 04:11:27;;;;;;;19.63;12.10;;;16.70;99.90;;;;;;4982482;28;20072;-47
2022/08/29 04:13:53;;;;;;;16.30;9.60;;;16.60;99.90;;;;;;4982643;28;20034;-44
2022/08/29 04:16:24;;;;;;;11.32;9.57;;;16.50;99.90;;;;;;4983921;28;20022;-46
2022/08/29 04:18:50;;;;;;;12.32;9.55;;;16.40;99.90;;;;;;4981820;28;20026;-44
2022/08/29 04:21:17;;;;;;;13.07;10.10;;;16.30;99.90;;;;;;4979329;28;20029;-44
2022/08/29 04:23:44;;;;;;;12.68;9.68;;;16.30;99.90;;;;;;4986116;28;20014;-44
2022/08/29 04:26:15;;;;;;;12.88;8.73;;;16.20;99.90;;;;;;4980483;28;20394;-46
2022/08/29 04:28:41;;;;;;;16.25;10.10;;;16.20;99.90;;;;;;4986599;28;20018;-46
2022/08/29 04:31:12;;;;;;;11.57;10.30;;;16.20;99.90;;;;;;4980447;28;20105;-44
2022/08/29 04:33:39;;;;;;;14.30;9.43;;;16.20;99.90;;;;;;4975517;28;20023;-46
2022/08/29 04:36:05;;;;;;;20.70;8.43;;;16.20;99.90;;;;;;4986395;28;20026;-44
2022/08/29 04:38:31;;;;;;;18.27;9.80;;;16.20;99.90;;;;;;4979948;28;20039;-46
2022/08/29 04:40:57;;;;;;;11.27;7.95;;;16.10;99.90;;;;;;4986983;28;20038;-46
2022/08/29 04:43:23;;;;;;;8.50;7.68;;;16.20;99.90;;;;;;4979422;28;20022;-45
2022/08/29 04:45:55;;;;;;;12.60;7.85;;;16.20;99.90;;;;;;4987970;28;20106;-46
2022/08/29 04:48:21;;;;;;;8.13;7.32;;;16.20;99.90;;;;;;4975070;28;20035;-46
2022/08/29 04:50:56;;;;;;;13.55;8.27;;;16.20;99.90;;;;;;4979758;28;20031;-45
2022/08/29 04:53:23;;;;;;;9.38;7.00;;;16.30;99.90;;;;;;4974113;28;20053;-47
2022/08/29 04:55:59;;;;;;;14.50;7.15;;;16.30;99.90;;;;;;4980026;28;20118;-45
2022/08/29 04:58:25;;;;;;;8.52;6.03;;;16.30;99.90;;;;;;4985565;28;20034;-45
2022/08/29 05:00:52;;;;;;;7.82;6.28;;;16.30;99.90;;;;;;4979735;28;20030;-48
2022/08/29 05:03:19;;;;;;;6.80;5.78;;;16.40;99.90;;;;;;4986896;28;20439;-44
2022/08/29 05:05:45;;;;;;;6.50;5.85;;;16.30;99.90;;;;;;4977917;28;20023;-45
2022/08/29 05:08:10;;;;;;;7.95;6.07;;;16.30;99.90;;;;;;4980969;28;20022;-47
2022/08/29 05:10:37;;;;;;;18.15;7.28;;;16.30;99.90;;;;;;4982872;28;20023;-46
2022/08/29 05:13:03;;;;;;;7.90;5.88;;;16.30;99.90;;;;;;4980888;28;20113;-48
2022/08/29 05:15:30;;;;;;;10.95;6.15;;;16.30;99.90;;;;;;4984517;28;20427;-45
2022/08/29 05:17:55;;;;;;;19.60;6.82;;;16.30;99.90;;;;;;4978441;28;20035;-45
2022/08/29 05:20:21;;;;;;;9.07;6.20;;;16.30;99.90;;;;;;4981838;28;20028;-48
2022/08/29 05:22:47;;;;;;;5.07;4.57;;;16.30;99.90;;;;;;4981080;28;20441;-47
2022/08/29 05:25:13;;;;;;;5.80;5.22;;;16.30;99.90;;;;;;4982185;28;20025;-46
2022/08/29 05:27:39;;;;;;;7.80;4.97;;;16.30;99.90;;;;;;4982232;28;20092;-46
2022/08/29 05:30:05;;;;;;;5.35;4.80;;;16.30;99.90;;;;;;4982610;28;20506;-46
2022/08/29 05:32:31;;;;;;;5.13;4.45;;;16.30;99.90;;;;;;4982659;28;20038;-46
2022/08/29 05:34:57;;;;;;;4.93;3.97;;;16.40;99.90;;;;;;4980727;28;20022;-46
2022/08/29 05:37:23;;;;;;;7.82;4.30;;;16.40;99.90;;;;;;4982424;28;20109;-46
2022/08/29 05:39:49;;;;;;;5.25;4.75;;;16.50;99.90;;;;;;4981336;28;20030;-45
2022/08/29 05:42:16;;;;;;;5.28;4.00;;;16.50;99.90;;;;;;4971224;28;20022;-45
2022/08/29 05:44:42;;;;;;;4.05;3.78;;;16.50;99.90;;;;;;4982476;28;20104;-45
2022/08/29 05:47:10;;;;;;;5.15;4.43;;;16.50;99.90;;;;;;4982225;28;20055;-48
2022/08/29 05:49:38;;;;;;;6.97;4.03;;;16.60;99.90;;;;;;5026404;23;20042;-59
2022/08/29 05:52:04;;;;;;;5.60;4.63;;;16.60;99.90;;;;;;4987455;28;20386;-56
2022/08/29 05:54:33;;;;;;;8.65;4.85;;;16.60;99.90;;;;;;4986016;28;20390;-56
2022/08/29 05:56:58;;;;;;;6.15;3.45;;;16.60;99.90;;;;;;4988249;28;20015;-58
2022/08/29 05:59:24;;;;;;;4.47;3.90;;;16.60;99.90;;;;;;4976970;28;20019;-57
2022/08/29 06:01:50;;;;;;;4.68;3.83;;;16.60;99.90;;;;;;4969937;28;20038;-58
2022/08/29 06:04:15;;;;;;;4.55;4.13;;;16.70;99.90;;;;;;4970600;28;20070;-58
2022/08/29 06:06:41;;;;;;;15.57;4.65;;;16.70;99.90;;;;;;4970548;28;20041;-57
2022/08/29 06:09:07;;;;;;;7.47;3.75;;;16.70;99.90;;;;;;4970626;28;20019;-54
2022/08/29 06:11:33;;;;;;;5.13;3.90;;;16.70;99.90;;;;;;4970478;28;20065;-58
2022/08/29 06:14:00;;;;;;;3.72;3.30;;;16.70;99.90;;;;;;4970541;28;20054;-56
2022/08/29 06:16:27;;;;;;;5.70;3.83;;;16.70;99.90;;;;;;4971490;28;20039;-57
2022/08/29 06:18:53;;;;;;;6.50;3.50;;;16.80;99.90;;;;;;4968294;28;20046;-56
2022/08/29 06:21:19;;;;;;;5.18;3.40;;;16.80;99.90;;;;;;4969387;28;20439;-55
2022/08/29 06:23:46;;;;;;;6.03;3.88;;;16.90;99.90;;;;;;4968810;28;20019;-58
2022/08/29 06:26:12;;;;;;;4.88;3.45;;;16.90;99.90;;;;;;4970333;28;20109;-58
2022/08/29 06:28:46;;;;;;;6.85;3.25;;;17.00;99.90;;;;;;4968931;28;20049;-54
2022/08/29 06:31:19;;;;;;;4.57;3.42;;;16.90;99.90;;;;;;4969980;28;20382;-57
2022/08/29 06:33:45;;;;;;;6.53;3.38;;;17.00;99.90;;;;;;4971123;28;20471;-57
2022/08/29 06:36:11;;;;;;;13.85;3.83;;;16.90;99.90;;;;;;4970225;28;20031;-58
2022/08/29 06:38:37;;;;;;;3.28;2.85;;;16.90;99.90;;;;;;4970110;28;20038;-55
2022/08/29 06:41:05;;;;;;;4.25;2.70;;;16.90;99.90;;;;;;4969943;28;20632;-56
2022/08/29 06:43:31;;;;;;;4.60;2.80;;;16.90;99.90;;;;;;4970053;28;20209;-56
2022/08/29 06:45:56;;;;;;;5.35;3.63;;;16.90;99.90;;;;;;4970437;28;20403;-58
2022/08/29 06:48:22;;;;;;;3.00;2.72;;;16.90;99.90;;;;;;4968799;28;20046;-57
2022/08/29 06:50:48;;;;;;;2.78;2.30;;;17.00;99.90;;;;;;4970215;28;20038;-56
2022/08/29 06:53:13;;;;;;;7.93;2.40;;;17.00;99.90;;;;;;4969947;28;20038;-59
2022/08/29 06:55:39;;;;;;;4.80;3.10;;;17.00;99.90;;;;;;4973211;28;20089;-59
2022/08/29 06:58:05;;;;;;;4.82;2.60;;;17.10;99.90;;;;;;4973579;28;20035;-59
2022/08/29 07:00:31;;;;;;;3.10;2.20;;;17.10;99.90;;;;;;4973410;28;20406;-56
2022/08/29 07:02:57;;;;;;;4.40;2.75;;;17.20;99.90;;;;;;4971876;28;20023;-56
2022/08/29 07:05:23;;;;;;;2.28;1.98;;;17.30;99.90;;;;;;4973008;28;20034;-58
2022/08/29 07:07:50;;;;;;;7.28;2.50;;;17.40;99.90;;;;;;4973488;28;20023;-58
2022/08/29 07:10:16;;;;;;;4.20;2.22;;;17.50;99.90;;;;;;4973126;28;20035;-59
2022/08/29 07:12:42;;;;;;;2.05;1.92;;;17.60;99.90;;;;;;4973002;28;20029;-59
2022/08/29 07:15:08;;;;;;;1.67;1.58;;;17.50;99.90;;;;;;4973030;28;20031;-59
2022/08/29 07:17:34;;;;;;;2.45;1.77;;;17.60;99.90;;;;;;4973105;28;20110;-57
2022/08/29 07:19:59;;;;;;;1.75;1.63;;;17.70;99.90;;;;;;4970970;28;20089;-56
2022/08/29 07:22:25;;;;;;;2.92;1.80;;;17.80;99.90;;;;;;4972931;28;20042;-56
2022/08/29 07:24:54;;;;;;;1.58;1.48;;;18.00;99.90;;;;;;4973613;28;20023;-59
2022/08/29 07:27:20;;;;;;;2.90;1.70;;;18.20;99.90;;;;;;4973061;28;20490;-59
2022/08/29 07:29:45;;;;;;;6.43;1.73;;;18.30;99.90;;;;;;4972774;28;20058;-58
2022/08/29 07:32:11;;;;;;;1.98;1.55;;;18.40;99.90;;;;;;4972181;28;20507;-59
2022/08/29 07:34:36;;;;;;;3.40;1.60;;;18.60;99.90;;;;;;4972388;28;20827;-58
2022/08/29 07:37:03;;;;;;;4.78;1.63;;;18.60;99.90;;;;;;4972817;28;20538;-60
2022/08/29 07:39:30;;;;;;;2.28;1.40;;;18.60;99.90;;;;;;4972847;28;20101;-57
2022/08/29 07:41:57;;;;;;;1.88;1.73;;;18.70;99.90;;;;;;4972360;28;20483;-54
2022/08/29 07:44:24;;;;;;;2.30;2.10;;;18.80;99.90;;;;;;4970165;28;20027;-56
2022/08/29 07:46:57;;;;;;;2.80;1.45;;;19.00;99.90;;;;;;4972240;28;20039;-57
2022/08/29 07:49:27;;;;;;;1.55;1.30;;;19.20;99.90;;;;;;4972519;28;20041;-58
2022/08/29 07:51:54;;;;;;;1.52;1.42;;;19.40;99.90;;;;;;4972088;28;20106;-58
2022/08/29 07:54:21;;;;;;;1.98;1.10;;;19.60;99.90;;;;;;4972074;28;20030;-57
2022/08/29 07:56:50;;;;;;;2.13;1.27;;;20.00;99.90;;;;;;4972408;28;20022;-57
2022/08/29 07:59:17;;;;;;;1.63;1.23;;;20.20;99.90;;;;;;4965083;28;20030;-55
2022/08/29 08:01:43;;;;;;;2.20;1.27;;;20.30;99.90;;;;;;4972317;28;20015;-60
2022/08/29 08:04:09;;;;;;;1.38;1.27;;;20.30;99.90;;;;;;4972299;28;20080;-58
2022/08/29 08:06:38;;;;;;;1.65;1.30;;;20.40;99.90;;;;;;4971025;28;20460;-58
2022/08/29 08:09:04;;;;;;;2.20;1.10;;;20.40;99.90;;;;;;4972165;28;20142;-58
2022/08/29 08:11:30;;;;;;;1.77;1.63;;;20.40;99.90;;;;;;4971492;28;20632;-58
2022/08/29 08:13:56;;;;;;;4.35;1.35;;;20.40;99.90;;;;;;4971928;28;20530;-58
2022/08/29 08:16:24;;;;;;;6.75;2.03;;;20.30;99.90;;;;;;4972179;28;20042;-58
2022/08/29 08:18:50;;;;;;;2.78;1.30;;;20.10;99.90;;;;;;4970071;28;20105;-59
2022/08/29 08:21:16;;;;;;;1.30;1.20;;;20.00;99.90;;;;;;4971480;28;20482;-57
2022/08/29 08:23:43;;;;;;;5.82;1.75;;;19.90;99.90;;;;;;4971825;28;20447;-58
2022/08/29 08:26:12;;;;;;;5.22;1.55;;;19.90;99.90;;;;;;4971805;28;20033;-56
2022/08/29 08:28:39;;;;;;;1.23;1.13;;;19.90;99.90;;;;;;4971619;28;20026;-56
2022/08/29 08:31:07;;;;;;;1.75;1.10;;;19.90;99.90;;;;;;4971885;28;20074;-56
2022/08/29 08:33:34;;;;;;;10.70;2.20;;;19.90;99.90;;;;;;4971722;28;20230;-57
2022/08/29 08:36:00;;;;;;;2.15;1.38;;;19.90;99.90;;;;;;4970856;28;20027;-57
2022/08/29 08:38:25;;;;;;;1.45;1.20;;;19.90;99.90;;;;;;4971565;28;20077;-57
2022/08/29 08:41:01;;;;;;;2.13;0.77;;;19.90;99.90;;;;;;4971192;28;20034;-57
2022/08/29 08:43:56;;;;;;;2.05;1.08;;;19.90;99.90;;;;;;4969664;28;20066;-57
2022/08/29 08:46:36;;;;;;;4.75;1.48;;;19.90;99.90;;;;;;4956553;28;20030;-58
2022/08/29 08:49:07;;;;;;;0.88;0.88;;;19.90;99.90;;;;;;4969411;28;20033;-56
2022/08/29 08:51:35;;;;;;;2.78;0.85;;;20.00;99.90;;;;;;4970677;28;20039;-58
2022/08/29 08:54:06;;;;;;;16.48;2.47;;;20.00;99.90;;;;;;4969718;28;20026;-57
2022/08/29 08:56:41;;;;;;;3.65;1.20;;;19.90;99.90;;;;;;4971205;28;20050;-58
2022/08/29 08:59:41;;;;;;;3.50;1.40;;;20.00;99.90;;;;;;4970220;28;20526;-58
2022/08/29 09:02:16;;;;;;;3.42;1.02;;;20.10;99.90;;;;;;4971140;28;20039;-57
2022/08/29 09:04:56;;;;;;;3.55;0.80;;;20.30;99.90;;;;;;4970950;28;20026;-56
2022/08/29 09:07:46;;;;;;;2.03;0.55;;;20.40;99.90;;;;;;4968743;28;20074;-56
2022/08/29 09:10:48;;;;;;;1.92;0.50;;;20.50;99.90;;;;;;4971386;28;20023;-56
2022/08/29 09:13:22;;;;;;;2.30;0.80;;;20.60;99.90;;;;;;4899335;28;20041;-59
2022/08/29 09:15:52;;;;;;;10.77;1.50;;;20.70;99.90;;;;;;4970988;28;20023;-58
2022/08/29 09:18:38;;;;;;;1.70;0.75;;;20.70;99.90;;;;;;4961473;28;20495;-56
2022/08/29 09:21:09;;;;;;;0.68;0.68;;;20.60;99.90;;;;;;4970991;28;20026;-60
2022/08/29 09:23:43;;;;;;;2.70;1.00;;;20.50;99.90;;;;;;4970641;28;20031;-57
2022/08/29 09:26:10;;;;;;;1.08;0.77;;;20.30;99.90;;;;;;4970760;28;20023;-58
2022/08/29 09:28:36;;;;;;;10.50;1.35;;;20.30;99.90;;;;;;4970525;28;20011;-60
2022/08/29 09:31:21;;;;;;;1.92;1.13;;;20.30;99.90;;;;;;4970931;28;20632;-58
2022/08/29 09:33:53;;;;;;;1.05;0.57;;;20.50;99.90;;;;;;4967365;28;20380;-59
2022/08/29 09:36:38;;;;;;;0.95;0.60;;;20.60;99.90;;;;;;4964908;28;20031;-58
2022/08/29 09:39:27;;;;;;;2.00;0.80;;;20.70;99.90;;;;;;4970462;28;20498;-56
2022/08/29 09:42:08;;;;;;;1.25;0.57;;;20.70;99.90;;;;;;4968845;28;20419;-57
2022/08/29 09:44:34;;;;;;;0.60;0.50;;;20.80;99.90;;;;;;4969871;28;20077;-57
2022/08/29 09:47:18;;;;;;;2.17;0.68;;;20.80;99.90;;;;;;4968432;28;20022;-59
2022/08/29 09:50:09;;;;;;;3.47;0.75;;;20.80;99.90;;;;;;4968460;28;20062;-60
2022/08/29 09:52:49;;;;;;;1.23;1.08;;;20.80;99.90;;;;;;4957716;28;20055;-58
2022/08/29 09:55:43;;;;;;;4.82;0.50;;;20.70;99.90;;;;;;4966609;28;20039;-58
2022/08/29 09:58:28;;;;;;;2.08;0.45;;;20.80;99.90;;;;;;4968093;28;20455;-60
2022/08/29 10:01:04;;;;;;;0.68;0.43;;;20.80;99.90;;;;;;4966476;28;20038;-58
2022/08/29 10:03:34;;;;;;;1.30;0.63;;;20.80;99.90;;;;;;4970459;28;20109;-58
2022/08/29 10:06:13;;;;;;;0.55;0.55;;;20.80;99.90;;;;;;4968185;28;20091;-59
2022/08/29 10:08:41;;;;;;;1.55;0.90;;;20.80;99.90;;;;;;4968905;28;20117;-58
2022/08/29 10:11:21;;;;;;;0.98;0.60;;;20.90;99.90;;;;;;4970315;28;20058;-60
2022/08/29 10:13:56;;;;;;;3.40;1.05;;;20.90;99.90;;;;;;4970333;28;20566;-60
2022/08/29 10:16:47;;;;;;;2.45;0.70;;;21.00;99.90;;;;;;4963651;28;20030;-58
2022/08/29 10:19:16;;;;;;;1.05;0.70;;;20.80;99.90;;;;;;4967998;28;20038;-59
2022/08/29 10:21:55;;;;;;;1.50;0.60;;;20.80;99.90;;;;;;4969252;28;20030;-58
2022/08/29 10:24:35;;;;;;;1.35;0.70;;;20.90;99.90;;;;;;4964417;28;20030;-60
2022/08/29 10:27:34;;;;;;;1.58;0.70;;;20.90;99.90;;;;;;4968874;28;20110;-60
2022/08/29 10:30:20;;;;;;;0.95;0.70;;;20.80;99.90;;;;;;4972296;28;20502;-59
2022/08/29 10:33:08;;;;;;;0.60;0.60;;;20.80;99.90;;;;;;4973570;28;20094;-56
2022/08/29 10:35:48;;;;;;;2.47;0.90;;;20.70;99.90;;;;;;4968702;28;20046;-62
2022/08/29 10:38:33;;;;;;;1.75;0.60;;;20.80;99.90;;;;;;4970411;28;20031;-59
2022/08/29 10:41:06;;;;;;;1.08;0.60;;;20.70;99.90;;;;;;4973930;28;20034;-58
2022/08/29 10:43:38;;;;;;;1.35;0.98;;;20.70;99.90;;;;;;4973586;28;20029;-59
2022/08/29 10:46:24;;;;;;;0.80;0.80;;;20.60;99.90;;;;;;4973770;28;20372;-57
2022/08/29 10:49:11;;;;;;;1.15;0.88;;;20.80;99.90;;;;;;4973578;28;20026;-59
2022/08/29 10:51:52;;;;;;;3.28;0.77;;;21.00;99.90;;;;;;4973123;28;20434;-58
2022/08/29 10:54:23;;;;;;;1.15;0.90;;;21.20;99.90;;;;;;4966254;28;20018;-58
2022/08/29 10:56:50;;;;;;;0.73;0.73;;;21.20;99.90;;;;;;4972209;28;20023;-59
2022/08/29 10:59:25;;;;;;;2.38;1.10;;;21.20;99.90;;;;;;4973422;28;20023;-57
2022/08/29 11:02:07;;;;;;;2.17;1.17;;;21.10;99.90;;;;;;4973272;28;20629;-59
2022/08/29 11:04:46;;;;;;;2.65;1.00;;;20.90;99.90;;;;;;4973585;28;20106;-55
2022/08/29 11:07:24;;;;;;;1.02;0.90;;;20.90;99.90;;;;;;4973563;28;20431;-59
2022/08/29 11:10:05;;;;;;;3.30;1.40;;;20.90;99.90;;;;;;4972968;28;20050;-56
2022/08/29 11:12:43;;;;;;;3.15;1.00;;;21.00;99.90;;;;;;4973033;28;20019;-57
2022/08/29 11:15:34;;;;;;;4.13;0.95;;;21.10;99.90;;;;;;4973213;28;20022;-56
2022/08/29 11:18:17;;;;;;;2.22;0.90;;;21.30;99.90;;;;;;4969044;28;20487;-59
2022/08/29 11:20:48;;;;;;;3.00;0.90;;;21.30;99.90;;;;;;4973254;28;20113;-59
2022/08/29 11:23:33;;;;;;;3.03;1.10;;;21.30;99.90;;;;;;4970895;28;20545;-56
2022/08/29 11:26:07;;;;;;;4.38;1.20;;;21.20;99.90;;;;;;4973165;28;20027;-57
2022/08/29 11:28:51;;;;;;;5.28;1.42;;;21.00;99.90;;;;;;4967867;28;20099;-56
2022/08/29 11:31:49;;;;;;;1.00;0.88;;;21.00;99.90;;;;;;4967642;28;20489;-59
2022/08/29 11:34:47;;;;;;;3.85;1.20;;;20.80;99.90;;;;;;4964838;28;20047;-59
2022/08/29 11:37:30;;;;;;;3.55;1.08;;;20.80;99.90;;;;;;4952474;28;20035;-59
2022/08/29 11:40:01;;;;;;;1.80;1.10;;;20.80;99.90;;;;;;4971443;28;20131;-58
2022/08/29 11:42:33;;;;;;;19.00;2.38;;;20.90;99.90;;;;;;4971576;28;20106;-59
2022/08/29 11:45:01;;;;;;;2.45;1.00;;;20.90;99.90;;;;;;4972734;28;20023;-59
2022/08/29 11:47:54;;;;;;;1.95;1.15;;;20.90;99.90;;;;;;4972939;28;20018;-59
2022/08/29 11:50:28;;;;;;;1.00;0.82;;;20.80;99.90;;;;;;4970120;28;20093;-58
2022/08/29 11:53:11;;;;;;;3.15;1.45;;;20.80;99.90;;;;;;4972142;28;20030;-57
2022/08/29 11:55:37;;;;;;;2.90;0.80;;;20.80;99.90;;;;;;4972548;28;20030;-59
2022/08/29 11:58:23;;;;;;;1.85;1.10;;;20.80;99.90;;;;;;4972623;28;20100;-58
2022/08/29 12:00:51;;;;;;;2.20;0.90;;;20.60;99.90;;;;;;4961673;28;20034;-59
2022/08/29 12:03:32;;;;;;;1.42;0.70;;;20.70;99.90;;;;;;4971522;28;20026;-56
2022/08/29 12:06:04;;;;;;;5.25;1.33;;;20.70;99.90;;;;;;4969521;28;20055;-59
2022/08/29 12:08:36;;;;;;;1.38;0.90;;;20.80;99.90;;;;;;4971789;28;20019;-56
2022/08/29 12:11:03;;;;;;;6.15;1.35;;;20.90;99.90;;;;;;4970187;28;20505;-55
2022/08/29 12:13:47;;;;;;;4.85;0.88;;;20.90;99.90;;;;;;4971387;28;20134;-57
2022/08/29 12:16:16;;;;;;;1.00;0.77;;;20.90;99.90;;;;;;4971810;28;20102;-59
2022/08/29 12:18:47;;;;;;;2.30;1.33;;;20.80;99.90;;;;;;4970383;28;20037;-56
2022/08/29 12:21:37;;;;;;;1.33;0.70;;;20.80;99.90;;;;;;4971154;28;20023;-57
2022/08/29 12:24:06;;;;;;;2.67;1.08;;;20.80;99.90;;;;;;4971868;28;20092;-58
2022/08/29 12:26:43;;;;;;;5.38;1.10;;;20.70;99.90;;;;;;4971684;28;20040;-58
2022/08/29 12:29:23;;;;;;;1.35;1.25;;;20.70;99.90;;;;;;4970598;28;20054;-56
2022/08/29 12:32:09;;;;;;;2.70;0.85;;;20.50;99.90;;;;;;4970152;28;20030;-58
2022/08/29 12:34:44;;;;;;;;;;;20.50;99.90;;;;;;4967307;28;20050;-58
2022/08/29 12:37:13;;;;;;;2.17;0.80;;;20.40;99.90;;;;;;4971305;28;19910;-56
2022/08/29 12:40:15;;;;;;;1.60;0.98;;;20.30;99.90;;;;;;4971457;28;20033;-56
2022/08/29 12:42:43;;;;;;;3.05;1.55;;;20.10;99.90;;;;;;4951778;28;20387;-57
2022/08/29 12:45:16;;;;;;;3.10;1.45;;;20.10;99.90;;;;;;4971586;28;20027;-59
2022/08/29 12:47:57;;;;;;;1.70;1.17;;;20.00;99.90;;;;;;4970558;28;20022;-56
2022/08/29 12:50:43;;;;;;;3.55;1.00;;;20.20;99.90;;;;;;4964920;28;20042;-58
2022/08/29 12:53:18;;;;;;;;;;;20.00;99.90;;;;;;4971085;28;20053;-57
2022/08/29 12:55:48;;;;;;;1.20;0.90;;;20.10;99.90;;;;;;4971687;28;19917;-57
2022/08/29 12:58:34;;;;;;;2.55;0.70;;;20.20;99.90;;;;;;4971641;28;20043;-56
2022/08/29 13:01:01;;;;;;;3.22;1.25;;;20.30;99.90;;;;;;4971049;28;20062;-58
2022/08/29 13:03:27;;;;;;;1.25;0.93;;;20.30;99.90;;;;;;4970158;28;20023;-54
2022/08/29 13:06:04;;;;;;;2.88;0.90;;;20.40;99.90;;;;;;4971065;28;20479;-60